sensor_id;sensor_type;location;lat;lon;timestamp;P1;P4;P2;P0;N10;N4;N25;N1;N05;TS
72225;SPS30;60130;52.250;5.048;2024-01-27T00:00:00;4.29;;3.72;;;;;;;
72225;SPS30;60130;52.250;5.048;2024-01-27T00:05:00;3.82;;3.41;;;;;;;
72225;SPS30;60130;52.250;5.048;2024-01-27T00:10:01;3.30;;3.03;;;;;;;
72225;SPS30;60130;52.250;5.048;2024-01-27T00:15:00;3.27;;2.89;;;;;;;
72225;SPS30;60130;52.250;5.048;2024-01-27T00:20:00;3.62;;3.23;;;;;;;
72225;SPS30;60130;52.250;5.048;2024-01-27T00:25:00;3.16;;2.79;;;;;;;
72225;SPS30;60130;52.250;5.048;2024-01-27T00:30:00;3.06;;2.66;;;;;;;
72225;SPS30;60130;52.250;5.048;2024-01-27T00:35:00;3.08;;2.71;;;;;;;
72225;SPS30;60130;52.250;5.048;2024-01-27T00:40:00;2.98;;2.63;;;;;;;
72225;SPS30;60130;52.250;5.048;2024-01-27T00:45:00;3.31;;2.80;;;;;;;
72225;SPS30;60130;52.250;5.048;2024-01-27T00:50:00;2.91;;2.50;;;;;;;
72225;SPS30;60130;52.250;5.048;2024-01-27T00:55:00;2.89;;2.49;;;;;;;
72225;SPS30;60130;52.250;5.048;2024-01-27T01:00:00;3.53;;3.03;;;;;;;
72225;SPS30;60130;52.250;5.048;2024-01-27T01:05:00;3.38;;2.92;;;;;;;
72225;SPS30;60130;52.250;5.048;2024-01-27T01:10:00;3.19;;2.79;;;;;;;
72225;SPS30;60130;52.250;5.048;2024-01-27T01:15:00;2.84;;2.52;;;;;;;
72225;SPS30;60130;52.250;5.048;2024-01-27T01:20:00;3.71;;3.21;;;;;;;
72225;SPS30;60130;52.250;5.048;2024-01-27T01:25:00;2.76;;2.46;;;;;;;
72225;SPS30;60130;52.250;5.048;2024-01-27T01:30:00;3.01;;2.69;;;;;;;
72225;SPS30;60130;52.250;5.048;2024-01-27T01:35:00;3.29;;2.92;;;;;;;
72225;SPS30;60130;52.250;5.048;2024-01-27T01:40:00;2.83;;2.44;;;;;;;
72225;SPS30;60130;52.250;5.048;2024-01-27T01:45:00;3.01;;2.55;;;;;;;
72225;SPS30;60130;52.250;5.048;2024-01-27T01:50:00;2.69;;2.26;;;;;;;
72225;SPS30;60130;52.250;5.048;2024-01-27T01:55:00;3.22;;2.74;;;;;;;
72225;SPS30;60130;52.250;5.048;2024-01-27T02:00:00;3.22;;2.80;;;;;;;
72225;SPS30;60130;52.250;5.048;2024-01-27T02:05:00;3.05;;2.62;;;;;;;
72225;SPS30;60130;52.250;5.048;2024-01-27T02:10:00;3.63;;3.17;;;;;;;
72225;SPS30;60130;52.250;5.048;2024-01-27T02:15:00;2.63;;2.23;;;;;;;
72225;SPS30;60130;52.250;5.048;2024-01-27T02:20:00;3.64;;3.00;;;;;;;
72225;SPS30;60130;52.250;5.048;2024-01-27T02:25:00;3.15;;2.53;;;;;;;
72225;SPS30;60130;52.250;5.048;2024-01-27T02:30:00;2.91;;2.48;;;;;;;
72225;SPS30;60130;52.250;5.048;2024-01-27T02:35:00;2.39;;1.98;;;;;;;
72225;SPS30;60130;52.250;5.048;2024-01-27T02:40:00;2.98;;2.52;;;;;;;
72225;SPS30;60130;52.250;5.048;2024-01-27T02:45:00;2.89;;2.43;;;;;;;
72225;SPS30;60130;52.250;5.048;2024-01-27T02:50:00;3.05;;2.52;;;;;;;
72225;SPS30;60130;52.250;5.048;2024-01-27T02:55:00;3.20;;2.71;;;;;;;
72225;SPS30;60130;52.250;5.048;2024-01-27T03:00:00;2.78;;2.31;;;;;;;
72225;SPS30;60130;52.250;5.048;2024-01-27T03:05:00;3.47;;2.85;;;;;;;
72225;SPS30;60130;52.250;5.048;2024-01-27T03:10:00;3.46;;2.72;;;;;;;
72225;SPS30;60130;52.250;5.048;2024-01-27T03:15:00;2.95;;2.29;;;;;;;
72225;SPS30;60130;52.250;5.048;2024-01-27T03:20:00;3.12;;2.48;;;;;;;
72225;SPS30;60130;52.250;5.048;2024-01-27T03:25:00;3.53;;2.89;;;;;;;
72225;SPS30;60130;52.250;5.048;2024-01-27T03:30:00;3.76;;3.07;;;;;;;
72225;SPS30;60130;52.250;5.048;2024-01-27T03:35:00;5.06;;3.89;;;;;;;
72225;SPS30;60130;52.250;5.048;2024-01-27T03:40:00;3.31;;2.62;;;;;;;
72225;SPS30;60130;52.250;5.048;2024-01-27T03:45:00;2.80;;2.30;;;;;;;
72225;SPS30;60130;52.250;5.048;2024-01-27T03:50:00;3.22;;2.67;;;;;;;
72225;SPS30;60130;52.250;5.048;2024-01-27T03:55:00;3.01;;2.47;;;;;;;
72225;SPS30;60130;52.250;5.048;2024-01-27T04:00:00;3.61;;2.88;;;;;;;
72225;SPS30;60130;52.250;5.048;2024-01-27T04:05:00;2.60;;2.11;;;;;;;
72225;SPS30;60130;52.250;5.048;2024-01-27T04:10:02;3.36;;2.74;;;;;;;
72225;SPS30;60130;52.250;5.048;2024-01-27T04:15:00;4.07;;3.39;;;;;;;
72225;SPS30;60130;52.250;5.048;2024-01-27T04:20:00;3.60;;2.93;;;;;;;
72225;SPS30;60130;52.250;5.048;2024-01-27T04:25:00;2.36;;2.00;;;;;;;
72225;SPS30;60130;52.250;5.048;2024-01-27T04:30:00;3.13;;2.66;;;;;;;
72225;SPS30;60130;52.250;5.048;2024-01-27T04:35:00;2.93;;2.54;;;;;;;
72225;SPS30;60130;52.250;5.048;2024-01-27T04:40:00;3.06;;2.66;;;;;;;
72225;SPS30;60130;52.250;5.048;2024-01-27T04:45:00;3.38;;2.98;;;;;;;
72225;SPS30;60130;52.250;5.048;2024-01-27T04:50:00;4.27;;3.75;;;;;;;
72225;SPS30;60130;52.250;5.048;2024-01-27T04:55:00;3.41;;3.19;;;;;;;
72225;SPS30;60130;52.250;5.048;2024-01-27T05:00:00;4.41;;4.08;;;;;;;
72225;SPS30;60130;52.250;5.048;2024-01-27T05:05:01;3.81;;3.56;;;;;;;
72225;SPS30;60130;52.250;5.048;2024-01-27T05:10:00;4.89;;4.55;;;;;;;
72225;SPS30;60130;52.250;5.048;2024-01-27T05:15:00;4.21;;4.01;;;;;;;
72225;SPS30;60130;52.250;5.048;2024-01-27T05:20:00;5.35;;5.07;;;;;;;
72225;SPS30;60130;52.250;5.048;2024-01-27T05:25:00;6.25;;5.84;;;;;;;
72225;SPS30;60130;52.250;5.048;2024-01-27T05:30:00;5.44;;5.27;;;;;;;
72225;SPS30;60130;52.250;5.048;2024-01-27T05:35:00;5.81;;5.71;;;;;;;
72225;SPS30;60130;52.250;5.048;2024-01-27T05:40:00;6.06;;5.99;;;;;;;
72225;SPS30;60130;52.250;5.048;2024-01-27T05:45:00;6.68;;6.54;;;;;;;
72225;SPS30;60130;52.250;5.048;2024-01-27T05:50:00;7.41;;7.17;;;;;;;
72225;SPS30;60130;52.250;5.048;2024-01-27T05:55:00;7.07;;6.96;;;;;;;
72225;SPS30;60130;52.250;5.048;2024-01-27T06:00:00;7.05;;6.86;;;;;;;
72225;SPS30;60130;52.250;5.048;2024-01-27T06:05:00;7.40;;7.20;;;;;;;
72225;SPS30;60130;52.250;5.048;2024-01-27T06:10:00;7.65;;7.43;;;;;;;
72225;SPS30;60130;52.250;5.048;2024-01-27T06:15:00;8.53;;8.31;;;;;;;
72225;SPS30;60130;52.250;5.048;2024-01-27T06:20:00;8.14;;8.06;;;;;;;
72225;SPS30;60130;52.250;5.048;2024-01-27T06:25:00;7.98;;7.90;;;;;;;
72225;SPS30;60130;52.250;5.048;2024-01-27T06:30:00;7.18;;7.17;;;;;;;
72225;SPS30;60130;52.250;5.048;2024-01-27T06:35:00;8.55;;8.49;;;;;;;
72225;SPS30;60130;52.250;5.048;2024-01-27T06:40:02;8.15;;8.15;;;;;;;
72225;SPS30;60130;52.250;5.048;2024-01-27T06:45:00;7.85;;7.76;;;;;;;
72225;SPS30;60130;52.250;5.048;2024-01-27T06:50:00;7.61;;7.59;;;;;;;
72225;SPS30;60130;52.250;5.048;2024-01-27T06:55:00;7.81;;7.80;;;;;;;
72225;SPS30;60130;52.250;5.048;2024-01-27T07:00:00;7.57;;7.51;;;;;;;
72225;SPS30;60130;52.250;5.048;2024-01-27T07:05:00;7.86;;7.86;;;;;;;
72225;SPS30;60130;52.250;5.048;2024-01-27T07:10:00;7.82;;7.81;;;;;;;
72225;SPS30;60130;52.250;5.048;2024-01-27T07:15:00;8.57;;8.57;;;;;;;
72225;SPS30;60130;52.250;5.048;2024-01-27T07:20:00;9.20;;9.06;;;;;;;
72225;SPS30;60130;52.250;5.048;2024-01-27T07:25:00;8.33;;8.23;;;;;;;
72225;SPS30;60130;52.250;5.048;2024-01-27T07:30:00;8.96;;8.94;;;;;;;
72225;SPS30;60130;52.250;5.048;2024-01-27T07:35:01;7.75;;7.75;;;;;;;
72225;SPS30;60130;52.250;5.048;2024-01-27T07:40:00;7.27;;7.27;;;;;;;
72225;SPS30;60130;52.250;5.048;2024-01-27T07:45:00;8.48;;8.48;;;;;;;
72225;SPS30;60130;52.250;5.048;2024-01-27T07:50:00;7.67;;7.67;;;;;;;
72225;SPS30;60130;52.250;5.048;2024-01-27T07:55:00;7.68;;7.68;;;;;;;
72225;SPS30;60130;52.250;5.048;2024-01-27T08:00:00;7.50;;7.47;;;;;;;
72225;SPS30;60130;52.250;5.048;2024-01-27T08:05:00;8.12;;8.12;;;;;;;
72225;SPS30;60130;52.250;5.048;2024-01-27T08:10:00;7.98;;7.92;;;;;;;
72225;SPS30;60130;52.250;5.048;2024-01-27T08:15:00;7.70;;7.70;;;;;;;
72225;SPS30;60130;52.250;5.048;2024-01-27T08:20:00;8.45;;8.42;;;;;;;
72225;SPS30;60130;52.250;5.048;2024-01-27T08:25:00;7.26;;7.26;;;;;;;
72225;SPS30;60130;52.250;5.048;2024-01-27T08:30:00;8.07;;8.07;;;;;;;
72225;SPS30;60130;52.250;5.048;2024-01-27T08:35:00;7.29;;7.29;;;;;;;
72225;SPS30;60130;52.250;5.048;2024-01-27T08:40:00;7.82;;7.78;;;;;;;
72225;SPS30;60130;52.250;5.048;2024-01-27T08:45:00;7.28;;7.27;;;;;;;
72225;SPS30;60130;52.250;5.048;2024-01-27T08:50:00;8.24;;8.24;;;;;;;
72225;SPS30;60130;52.250;5.048;2024-01-27T08:55:00;8.05;;8.04;;;;;;;
72225;SPS30;60130;52.250;5.048;2024-01-27T09:00:00;8.81;;8.81;;;;;;;
72225;SPS30;60130;52.250;5.048;2024-01-27T09:05:00;8.63;;8.63;;;;;;;
72225;SPS30;60130;52.250;5.048;2024-01-27T09:10:00;8.93;;8.93;;;;;;;
72225;SPS30;60130;52.250;5.048;2024-01-27T09:15:00;8.64;;8.62;;;;;;;
72225;SPS30;60130;52.250;5.048;2024-01-27T09:20:00;7.95;;7.95;;;;;;;
72225;SPS30;60130;52.250;5.048;2024-01-27T09:25:00;7.81;;7.81;;;;;;;
72225;SPS30;60130;52.250;5.048;2024-01-27T09:30:00;8.24;;8.24;;;;;;;
72225;SPS30;60130;52.250;5.048;2024-01-27T09:35:00;8.90;;8.86;;;;;;;
72225;SPS30;60130;52.250;5.048;2024-01-27T09:40:00;7.23;;7.23;;;;;;;
72225;SPS30;60130;52.250;5.048;2024-01-27T09:45:00;8.07;;8.07;;;;;;;
72225;SPS30;60130;52.250;5.048;2024-01-27T09:50:00;8.10;;8.10;;;;;;;
72225;SPS30;60130;52.250;5.048;2024-01-27T09:55:00;8.57;;8.55;;;;;;;
72225;SPS30;60130;52.250;5.048;2024-01-27T10:00:00;8.56;;8.56;;;;;;;
72225;SPS30;60130;52.250;5.048;2024-01-27T10:05:00;8.80;;8.80;;;;;;;
72225;SPS30;60130;52.250;5.048;2024-01-27T10:10:00;7.28;;7.28;;;;;;;
72225;SPS30;60130;52.250;5.048;2024-01-27T10:15:00;7.86;;7.86;;;;;;;
72225;SPS30;60130;52.250;5.048;2024-01-27T10:20:00;8.65;;8.65;;;;;;;
72225;SPS30;60130;52.250;5.048;2024-01-27T10:25:00;7.23;;7.23;;;;;;;
72225;SPS30;60130;52.250;5.048;2024-01-27T10:30:00;7.66;;7.66;;;;;;;
72225;SPS30;60130;52.250;5.048;2024-01-27T10:35:01;8.33;;8.30;;;;;;;
72225;SPS30;60130;52.250;5.048;2024-01-27T10:40:01;7.23;;7.23;;;;;;;
72225;SPS30;60130;52.250;5.048;2024-01-27T10:45:00;7.44;;7.40;;;;;;;
72225;SPS30;60130;52.250;5.048;2024-01-27T10:50:00;7.38;;7.38;;;;;;;
72225;SPS30;60130;52.250;5.048;2024-01-27T10:55:01;6.57;;6.57;;;;;;;
72225;SPS30;60130;52.250;5.048;2024-01-27T11:00:00;6.39;;6.39;;;;;;;
72225;SPS30;60130;52.250;5.048;2024-01-27T11:05:00;6.78;;6.78;;;;;;;
72225;SPS30;60130;52.250;5.048;2024-01-27T11:10:00;6.55;;6.55;;;;;;;
72225;SPS30;60130;52.250;5.048;2024-01-27T11:15:00;6.74;;6.74;;;;;;;
72225;SPS30;60130;52.250;5.048;2024-01-27T11:20:00;6.23;;6.18;;;;;;;
72225;SPS30;60130;52.250;5.048;2024-01-27T11:25:08;6.45;;6.45;;;;;;;
72225;SPS30;60130;52.250;5.048;2024-01-27T11:30:00;6.57;;6.53;;;;;;;
72225;SPS30;60130;52.250;5.048;2024-01-27T11:35:00;6.01;;5.94;;;;;;;
72225;SPS30;60130;52.250;5.048;2024-01-27T11:40:03;6.03;;5.96;;;;;;;
72225;SPS30;60130;52.250;5.048;2024-01-27T11:45:00;5.42;;5.41;;;;;;;
72225;SPS30;60130;52.250;5.048;2024-01-27T11:50:00;5.99;;5.99;;;;;;;
72225;SPS30;60130;52.250;5.048;2024-01-27T11:55:00;6.35;;6.34;;;;;;;
72225;SPS30;60130;52.250;5.048;2024-01-27T12:00:00;5.48;;5.46;;;;;;;
72225;SPS30;60130;52.250;5.048;2024-01-27T12:05:00;5.47;;5.46;;;;;;;
72225;SPS30;60130;52.250;5.048;2024-01-27T12:10:00;5.50;;5.50;;;;;;;
72225;SPS30;60130;52.250;5.048;2024-01-27T12:15:00;6.19;;6.19;;;;;;;
72225;SPS30;60130;52.250;5.048;2024-01-27T12:20:00;5.34;;5.25;;;;;;;
72225;SPS30;60130;52.250;5.048;2024-01-27T12:25:07;5.96;;5.90;;;;;;;
72225;SPS30;60130;52.250;5.048;2024-01-27T12:30:00;5.62;;5.62;;;;;;;
72225;SPS30;60130;52.250;5.048;2024-01-27T12:35:04;6.33;;6.23;;;;;;;
72225;SPS30;60130;52.250;5.048;2024-01-27T12:40:00;5.03;;5.01;;;;;;;
72225;SPS30;60130;52.250;5.048;2024-01-27T12:45:00;4.74;;4.67;;;;;;;
72225;SPS30;60130;52.250;5.048;2024-01-27T12:50:00;5.15;;4.99;;;;;;;
72225;SPS30;60130;52.250;5.048;2024-01-27T12:55:00;5.44;;5.28;;;;;;;
72225;SPS30;60130;52.250;5.048;2024-01-27T13:00:00;5.15;;4.96;;;;;;;
72225;SPS30;60130;52.250;5.048;2024-01-27T13:05:01;4.32;;4.20;;;;;;;
72225;SPS30;60130;52.250;5.048;2024-01-27T13:10:00;5.29;;5.10;;;;;;;
72225;SPS30;60130;52.250;5.048;2024-01-27T13:15:00;4.63;;4.48;;;;;;;
72225;SPS30;60130;52.250;5.048;2024-01-27T13:20:00;4.41;;4.28;;;;;;;
72225;SPS30;60130;52.250;5.048;2024-01-27T13:25:00;4.46;;4.28;;;;;;;
72225;SPS30;60130;52.250;5.048;2024-01-27T13:30:00;4.43;;4.37;;;;;;;
72225;SPS30;60130;52.250;5.048;2024-01-27T13:35:00;5.11;;4.94;;;;;;;
72225;SPS30;60130;52.250;5.048;2024-01-27T13:40:01;4.62;;4.55;;;;;;;
72225;SPS30;60130;52.250;5.048;2024-01-27T13:45:00;5.63;;5.43;;;;;;;
72225;SPS30;60130;52.250;5.048;2024-01-27T13:50:00;5.01;;4.87;;;;;;;
72225;SPS30;60130;52.250;5.048;2024-01-27T13:55:00;4.77;;4.65;;;;;;;
72225;SPS30;60130;52.250;5.048;2024-01-27T14:00:00;4.00;;3.86;;;;;;;
72225;SPS30;60130;52.250;5.048;2024-01-27T14:05:00;4.81;;4.54;;;;;;;
72225;SPS30;60130;52.250;5.048;2024-01-27T14:10:00;4.53;;4.27;;;;;;;
72225;SPS30;60130;52.250;5.048;2024-01-27T14:15:02;4.45;;4.19;;;;;;;
72225;SPS30;60130;52.250;5.048;2024-01-27T14:20:00;4.39;;4.14;;;;;;;
72225;SPS30;60130;52.250;5.048;2024-01-27T14:25:00;4.86;;4.37;;;;;;;
72225;SPS30;60130;52.250;5.048;2024-01-27T14:30:00;4.88;;4.52;;;;;;;
72225;SPS30;60130;52.250;5.048;2024-01-27T14:35:00;5.18;;4.95;;;;;;;
72225;SPS30;60130;52.250;5.048;2024-01-27T14:40:00;4.76;;4.56;;;;;;;
72225;SPS30;60130;52.250;5.048;2024-01-27T14:45:00;5.11;;4.87;;;;;;;
72225;SPS30;60130;52.250;5.048;2024-01-27T14:50:00;6.01;;5.68;;;;;;;
72225;SPS30;60130;52.250;5.048;2024-01-27T14:55:00;4.41;;4.31;;;;;;;
72225;SPS30;60130;52.250;5.048;2024-01-27T15:00:00;4.40;;4.28;;;;;;;
72225;SPS30;60130;52.250;5.048;2024-01-27T15:05:00;4.72;;4.59;;;;;;;
72225;SPS30;60130;52.250;5.048;2024-01-27T15:10:00;4.43;;4.22;;;;;;;
72225;SPS30;60130;52.250;5.048;2024-01-27T15:15:00;4.59;;4.48;;;;;;;
72225;SPS30;60130;52.250;5.048;2024-01-27T15:20:00;4.53;;4.41;;;;;;;
72225;SPS30;60130;52.250;5.048;2024-01-27T15:25:00;4.78;;4.61;;;;;;;
72225;SPS30;60130;52.250;5.048;2024-01-27T15:30:00;5.44;;5.16;;;;;;;
72225;SPS30;60130;52.250;5.048;2024-01-27T15:35:00;5.49;;5.21;;;;;;;
72225;SPS30;60130;52.250;5.048;2024-01-27T15:40:00;4.89;;4.62;;;;;;;
72225;SPS30;60130;52.250;5.048;2024-01-27T15:45:00;4.52;;4.34;;;;;;;
72225;SPS30;60130;52.250;5.048;2024-01-27T15:50:00;4.95;;4.64;;;;;;;
72225;SPS30;60130;52.250;5.048;2024-01-27T15:55:00;4.97;;4.73;;;;;;;
72225;SPS30;60130;52.250;5.048;2024-01-27T16:00:00;4.64;;4.51;;;;;;;
72225;SPS30;60130;52.250;5.048;2024-01-27T16:05:00;5.01;;4.70;;;;;;;
72225;SPS30;60130;52.250;5.048;2024-01-27T16:10:00;5.97;;5.54;;;;;;;
72225;SPS30;60130;52.250;5.048;2024-01-27T16:15:00;5.32;;4.98;;;;;;;
72225;SPS30;60130;52.250;5.048;2024-01-27T16:20:00;5.80;;5.44;;;;;;;
72225;SPS30;60130;52.250;5.048;2024-01-27T16:25:00;5.54;;5.28;;;;;;;
72225;SPS30;60130;52.250;5.048;2024-01-27T16:30:00;5.14;;4.80;;;;;;;
72225;SPS30;60130;52.250;5.048;2024-01-27T16:35:00;5.65;;5.35;;;;;;;
72225;SPS30;60130;52.250;5.048;2024-01-27T16:40:00;5.91;;5.39;;;;;;;
72225;SPS30;60130;52.250;5.048;2024-01-27T16:45:00;5.28;;4.99;;;;;;;
72225;SPS30;60130;52.250;5.048;2024-01-27T16:50:00;5.10;;4.84;;;;;;;
72225;SPS30;60130;52.250;5.048;2024-01-27T16:55:00;5.46;;4.97;;;;;;;
72225;SPS30;60130;52.250;5.048;2024-01-27T17:00:00;4.88;;4.63;;;;;;;
72225;SPS30;60130;52.250;5.048;2024-01-27T17:05:00;5.58;;5.34;;;;;;;
72225;SPS30;60130;52.250;5.048;2024-01-27T17:10:00;4.74;;4.60;;;;;;;
72225;SPS30;60130;52.250;5.048;2024-01-27T17:15:00;5.77;;5.55;;;;;;;
72225;SPS30;60130;52.250;5.048;2024-01-27T17:20:00;5.17;;4.95;;;;;;;
72225;SPS30;60130;52.250;5.048;2024-01-27T17:25:00;5.77;;5.51;;;;;;;
72225;SPS30;60130;52.250;5.048;2024-01-27T17:30:00;5.27;;4.95;;;;;;;
72225;SPS30;60130;52.250;5.048;2024-01-27T17:35:00;5.61;;5.38;;;;;;;
72225;SPS30;60130;52.250;5.048;2024-01-27T17:40:00;6.01;;5.69;;;;;;;
72225;SPS30;60130;52.250;5.048;2024-01-27T17:45:00;4.91;;4.81;;;;;;;
72225;SPS30;60130;52.250;5.048;2024-01-27T17:50:00;5.34;;5.16;;;;;;;
72225;SPS30;60130;52.250;5.048;2024-01-27T17:55:00;6.41;;6.21;;;;;;;
72225;SPS30;60130;52.250;5.048;2024-01-27T18:00:00;6.16;;5.99;;;;;;;
72225;SPS30;60130;52.250;5.048;2024-01-27T18:05:00;5.16;;4.92;;;;;;;
72225;SPS30;60130;52.250;5.048;2024-01-27T18:10:00;6.97;;6.70;;;;;;;
72225;SPS30;60130;52.250;5.048;2024-01-27T18:15:00;6.74;;6.63;;;;;;;
72225;SPS30;60130;52.250;5.048;2024-01-27T18:20:00;5.55;;5.43;;;;;;;
72225;SPS30;60130;52.250;5.048;2024-01-27T18:25:00;5.63;;5.57;;;;;;;
72225;SPS30;60130;52.250;5.048;2024-01-27T18:30:00;5.73;;5.58;;;;;;;
72225;SPS30;60130;52.250;5.048;2024-01-27T18:35:00;6.22;;5.97;;;;;;;
72225;SPS30;60130;52.250;5.048;2024-01-27T18:40:00;6.10;;5.82;;;;;;;
72225;SPS30;60130;52.250;5.048;2024-01-27T18:45:00;5.62;;5.62;;;;;;;
72225;SPS30;60130;52.250;5.048;2024-01-27T18:50:00;5.36;;5.33;;;;;;;
72225;SPS30;60130;52.250;5.048;2024-01-27T18:55:00;6.02;;5.78;;;;;;;
72225;SPS30;60130;52.250;5.048;2024-01-27T19:00:00;6.99;;6.85;;;;;;;
72225;SPS30;60130;52.250;5.048;2024-01-27T19:05:01;7.28;;7.05;;;;;;;
72225;SPS30;60130;52.250;5.048;2024-01-27T19:10:00;7.04;;6.82;;;;;;;
72225;SPS30;60130;52.250;5.048;2024-01-27T19:15:00;6.51;;6.46;;;;;;;
72225;SPS30;60130;52.250;5.048;2024-01-27T19:20:01;7.16;;6.83;;;;;;;
72225;SPS30;60130;52.250;5.048;2024-01-27T19:25:00;7.60;;7.32;;;;;;;
72225;SPS30;60130;52.250;5.048;2024-01-27T19:30:00;8.09;;7.61;;;;;;;
72225;SPS30;60130;52.250;5.048;2024-01-27T19:35:00;7.80;;7.34;;;;;;;
72225;SPS30;60130;52.250;5.048;2024-01-27T19:40:00;7.43;;7.39;;;;;;;
72225;SPS30;60130;52.250;5.048;2024-01-27T19:45:00;5.46;;5.43;;;;;;;
72225;SPS30;60130;52.250;5.048;2024-01-27T19:50:00;6.47;;6.35;;;;;;;
72225;SPS30;60130;52.250;5.048;2024-01-27T19:55:00;6.50;;6.36;;;;;;;
72225;SPS30;60130;52.250;5.048;2024-01-27T20:00:00;7.41;;7.26;;;;;;;
72225;SPS30;60130;52.250;5.048;2024-01-27T20:05:00;7.05;;7.04;;;;;;;
72225;SPS30;60130;52.250;5.048;2024-01-27T20:10:00;6.75;;6.55;;;;;;;
72225;SPS30;60130;52.250;5.048;2024-01-27T20:15:00;8.19;;7.93;;;;;;;
72225;SPS30;60130;52.250;5.048;2024-01-27T20:20:00;8.54;;8.28;;;;;;;
72225;SPS30;60130;52.250;5.048;2024-01-27T20:25:01;9.40;;9.07;;;;;;;
72225;SPS30;60130;52.250;5.048;2024-01-27T20:30:00;9.94;;9.78;;;;;;;
72225;SPS30;60130;52.250;5.048;2024-01-27T20:35:00;9.16;;9.07;;;;;;;
72225;SPS30;60130;52.250;5.048;2024-01-27T20:40:00;9.41;;9.08;;;;;;;
72225;SPS30;60130;52.250;5.048;2024-01-27T20:45:00;8.39;;8.31;;;;;;;
72225;SPS30;60130;52.250;5.048;2024-01-27T20:50:00;8.27;;8.19;;;;;;;
72225;SPS30;60130;52.250;5.048;2024-01-27T20:55:00;9.02;;8.94;;;;;;;
72225;SPS30;60130;52.250;5.048;2024-01-27T21:00:00;8.52;;8.34;;;;;;;
72225;SPS30;60130;52.250;5.048;2024-01-27T21:05:00;8.13;;7.89;;;;;;;
72225;SPS30;60130;52.250;5.048;2024-01-27T21:10:00;8.31;;8.20;;;;;;;
72225;SPS30;60130;52.250;5.048;2024-01-27T21:15:00;9.23;;9.09;;;;;;;
72225;SPS30;60130;52.250;5.048;2024-01-27T21:20:00;8.35;;8.23;;;;;;;
72225;SPS30;60130;52.250;5.048;2024-01-27T21:25:00;9.05;;8.83;;;;;;;
72225;SPS30;60130;52.250;5.048;2024-01-27T21:30:00;8.63;;8.38;;;;;;;
72225;SPS30;60130;52.250;5.048;2024-01-27T21:35:00;8.54;;8.49;;;;;;;
72225;SPS30;60130;52.250;5.048;2024-01-27T21:40:00;9.00;;8.87;;;;;;;
72225;SPS30;60130;52.250;5.048;2024-01-27T21:45:00;9.28;;9.19;;;;;;;
72225;SPS30;60130;52.250;5.048;2024-01-27T21:50:00;10.05;;9.87;;;;;;;
72225;SPS30;60130;52.250;5.048;2024-01-27T21:55:00;10.70;;10.38;;;;;;;
72225;SPS30;60130;52.250;5.048;2024-01-27T22:00:00;9.35;;9.35;;;;;;;
72225;SPS30;60130;52.250;5.048;2024-01-27T22:05:00;8.57;;8.45;;;;;;;
72225;SPS30;60130;52.250;5.048;2024-01-27T22:10:00;9.94;;9.91;;;;;;;
72225;SPS30;60130;52.250;5.048;2024-01-27T22:15:00;8.94;;8.78;;;;;;;
72225;SPS30;60130;52.250;5.048;2024-01-27T22:20:00;9.65;;9.64;;;;;;;
72225;SPS30;60130;52.250;5.048;2024-01-27T22:25:00;9.46;;9.38;;;;;;;
72225;SPS30;60130;52.250;5.048;2024-01-27T22:30:00;9.06;;9.03;;;;;;;
72225;SPS30;60130;52.250;5.048;2024-01-27T22:35:00;7.81;;7.77;;;;;;;
72225;SPS30;60130;52.250;5.048;2024-01-27T22:40:00;7.79;;7.71;;;;;;;
72225;SPS30;60130;52.250;5.048;2024-01-27T22:45:00;8.58;;8.48;;;;;;;
72225;SPS30;60130;52.250;5.048;2024-01-27T22:50:00;8.03;;8.03;;;;;;;
72225;SPS30;60130;52.250;5.048;2024-01-27T22:55:00;9.21;;9.07;;;;;;;
72225;SPS30;60130;52.250;5.048;2024-01-27T23:00:00;8.33;;8.29;;;;;;;
72225;SPS30;60130;52.250;5.048;2024-01-27T23:05:00;8.44;;8.28;;;;;;;
72225;SPS30;60130;52.250;5.048;2024-01-27T23:10:00;8.31;;8.15;;;;;;;
72225;SPS30;60130;52.250;5.048;2024-01-27T23:15:00;8.70;;8.61;;;;;;;
72225;SPS30;60130;52.250;5.048;2024-01-27T23:20:00;8.44;;8.33;;;;;;;
72225;SPS30;60130;52.250;5.048;2024-01-27T23:25:01;8.63;;8.54;;;;;;;
72225;SPS30;60130;52.250;5.048;2024-01-27T23:30:00;9.19;;9.09;;;;;;;
72225;SPS30;60130;52.250;5.048;2024-01-27T23:35:00;8.96;;8.84;;;;;;;
72225;SPS30;60130;52.250;5.048;2024-01-27T23:40:00;9.30;;9.16;;;;;;;
72225;SPS30;60130;52.250;5.048;2024-01-27T23:45:00;7.87;;7.87;;;;;;;
72225;SPS30;60130;52.250;5.048;2024-01-27T23:50:00;8.91;;8.90;;;;;;;
72225;SPS30;60130;52.250;5.048;2024-01-27T23:55:00;9.32;;9.32;;;;;;;
